Wellsburg, West Virginia
Current Conditions -  °F | °C
As of 10:39 AM on Saturday 22 Nov 2014 (Local Time) from KHLG Reporting Station
Light Rain Light Rain  
Wind Chill: 27°   Ceiling: 6000
Heat Index: 33°   Visibility: 10mi
Dew Point: 21°   Wind: 7mph
Humidity: 61%   Direction: 230°SW
Pressure: 30.28"   Gusts: NA
Location:  40.27°N, 80.61°W
Report Text: KHLG 221539Z 23006KT 10SM -RA SCT018 OVC060 01/M06 A3028 RMK AO2 RAE02B22UPB02E22 P0000 T00061061
Loading
Personal Weather Stations






























Interactive Weather Map New forecast layout! Learn more

10-Day Weather Forecast

Advertisements
Track Severe Weather on mobile